createdAt,value
2019-02-19T00:03:40.280Z,8.00
2019-02-19T00:06:08.992Z,9.07
2019-02-19T00:08:56.861Z,7.80
2019-02-19T00:11:25.500Z,8.23
2019-02-19T00:13:54.167Z,8.43
2019-02-19T00:16:22.874Z,9.03
2019-02-19T00:21:40.884Z,7.63
2019-02-19T00:24:09.638Z,7.80
2019-02-19T00:26:38.224Z,7.77
2019-02-19T00:29:06.914Z,7.70
2019-02-19T00:31:35.499Z,9.13
2019-02-19T00:34:04.146Z,8.33
2019-02-19T00:36:32.884Z,6.47
2019-02-19T00:39:01.523Z,8.17
2019-02-19T00:41:49.400Z,7.40
2019-02-19T00:44:18.070Z,7.60
2019-02-19T00:46:46.725Z,8.13
2019-02-19T00:49:15.420Z,9.33
2019-02-19T00:51:44.114Z,8.57
2019-02-19T00:54:12.801Z,8.10
2019-02-19T00:56:41.508Z,7.30
2019-02-19T00:59:10.215Z,7.40
2019-02-19T01:01:38.889Z,7.73
2019-02-19T01:04:07.565Z,7.53
2019-02-19T01:06:36.215Z,8.30
2019-02-19T01:09:44.690Z,8.17
2019-02-19T01:12:13.388Z,7.93
2019-02-19T01:14:42.038Z,8.17
2019-02-19T01:17:10.750Z,7.33
2019-02-19T01:19:39.393Z,7.10
2019-02-19T01:22:27.344Z,7.63
2019-02-19T01:24:56.087Z,8.50
2019-02-19T01:27:24.665Z,7.57
2019-02-19T01:29:53.344Z,7.30
2019-02-19T01:32:22.003Z,7.63
2019-02-19T01:34:50.682Z,8.20
2019-02-19T01:37:19.364Z,7.57
2019-02-19T01:39:48.055Z,8.20
2019-02-19T01:42:16.696Z,8.20
2019-02-19T01:44:45.427Z,7.37
2019-02-19T01:47:14.066Z,7.40
2019-02-19T01:49:42.751Z,6.93
2019-02-19T01:52:11.581Z,7.43
2019-02-19T01:54:40.276Z,6.97
2019-02-19T01:57:08.964Z,7.40
2019-02-19T01:59:37.577Z,9.13
2019-02-19T02:02:06.351Z,7.33
2019-02-19T02:04:35.083Z,9.33
2019-02-19T02:07:04.532Z,7.50
2019-02-19T02:09:34.076Z,8.67
2019-02-19T02:12:02.723Z,7.20
2019-02-19T02:14:31.525Z,7.83
2019-02-19T02:17:00.230Z,7.63
2019-02-19T02:22:16.491Z,9.97
2019-02-19T02:25:04.344Z,8.37
2019-02-19T02:27:52.295Z,8.13
2019-02-19T02:30:20.979Z,8.73
2019-02-19T02:32:49.682Z,8.03
2019-02-19T02:35:18.327Z,8.63
2019-02-19T02:37:46.881Z,9.40
2019-02-19T02:40:15.611Z,9.07
2019-02-19T02:42:44.228Z,7.73
2019-02-19T02:45:12.849Z,7.43
2019-02-19T02:47:41.614Z,8.47
2019-02-19T02:50:10.280Z,8.50
2019-02-19T02:52:58.206Z,7.90
2019-02-19T02:55:26.749Z,7.00
2019-02-19T02:57:55.425Z,8.17
2019-02-19T03:00:24.206Z,7.67
2019-02-19T03:02:52.913Z,8.47
2019-02-19T03:05:21.567Z,7.47
2019-02-19T03:10:29.476Z,8.23
2019-02-19T03:12:58.094Z,7.00
2019-02-19T03:15:26.746Z,8.63
2019-02-19T03:20:30.086Z,6.83
2019-02-19T03:22:58.745Z,8.10
2019-02-19T03:25:27.429Z,7.63
2019-02-19T03:27:56.088Z,7.90
2019-02-19T03:30:44.064Z,9.03
2019-02-19T03:33:12.717Z,7.47
2019-02-19T03:35:41.409Z,7.90
2019-02-19T03:38:09.993Z,8.30
2019-02-19T03:40:38.652Z,9.00
2019-02-19T03:43:07.303Z,7.57
2019-02-19T03:45:35.939Z,6.87
2019-02-19T03:48:04.744Z,6.83
2019-02-19T03:50:33.322Z,6.67
2019-02-19T03:53:02.015Z,6.80
2019-02-19T03:56:10.487Z,7.37
2019-02-19T03:58:39.138Z,7.17
2019-02-19T04:01:27.091Z,7.30
2019-02-19T04:03:55.745Z,6.70
2019-02-19T04:06:24.368Z,6.57
2019-02-19T04:09:12.153Z,8.17
2019-02-19T04:11:40.829Z,7.40
2019-02-19T04:14:09.598Z,7.23
2019-02-19T04:16:38.417Z,7.23
2019-02-19T04:19:07.094Z,6.53
2019-02-19T04:21:54.934Z,6.17
2019-02-19T04:24:23.512Z,6.10
2019-02-19T04:26:52.167Z,5.77
2019-02-19T04:29:39.981Z,6.33
2019-02-19T04:32:08.629Z,6.43
2019-02-19T04:34:37.319Z,6.97
2019-02-19T04:37:05.902Z,5.83
2019-02-19T04:39:34.584Z,5.33
2019-02-19T04:42:03.253Z,7.97
2019-02-19T04:44:31.885Z,6.20
2019-02-19T04:47:00.652Z,5.43
2019-02-19T04:49:29.320Z,5.70
2019-02-19T04:51:58.051Z,6.67
2019-02-19T04:54:26.704Z,5.47
2019-02-19T04:57:14.727Z,6.83
2019-02-19T04:59:43.436Z,7.77
2019-02-19T05:02:12.142Z,5.47
2019-02-19T05:05:00.049Z,5.60
2019-02-19T05:07:28.743Z,5.60
2019-02-19T05:09:57.366Z,5.57
2019-02-19T05:12:26.026Z,6.03
2019-02-19T05:15:13.844Z,6.10
2019-02-19T05:17:42.546Z,5.33
2019-02-19T05:20:11.198Z,5.83
2019-02-19T05:22:39.838Z,6.37
2019-02-19T05:25:48.318Z,5.13
2019-02-19T05:28:16.836Z,5.90
2019-02-19T05:30:45.510Z,5.17
2019-02-19T05:33:14.156Z,5.20
2019-02-19T05:36:02.024Z,4.80
2019-02-19T05:38:30.702Z,5.57
2019-02-19T05:40:59.281Z,6.10
2019-02-19T05:43:28.115Z,5.13
2019-02-19T05:45:56.761Z,4.77
2019-02-19T05:48:44.645Z,4.77
2019-02-19T05:51:13.344Z,5.10
2019-02-19T05:53:42.142Z,5.20
2019-02-19T05:56:10.984Z,4.83
2019-02-19T05:58:41.351Z,4.90
2019-02-19T06:01:10.045Z,5.50
2019-02-19T06:03:38.680Z,4.40
2019-02-19T06:06:07.259Z,5.03
2019-02-19T06:08:36.461Z,5.23
2019-02-19T06:11:45.240Z,4.30
2019-02-19T06:14:13.858Z,4.33
2019-02-19T06:19:37.806Z,4.23
2019-02-19T06:25:13.602Z,4.57
2019-02-19T06:27:42.343Z,5.10
2019-02-19T06:30:32.149Z,5.17
2019-02-19T06:33:01.728Z,5.57
2019-02-19T06:38:19.543Z,5.07
2019-02-19T06:41:07.502Z,6.47
2019-02-19T06:43:36.200Z,5.50
2019-02-19T06:46:04.906Z,5.43
2019-02-19T06:48:33.595Z,4.30
2019-02-19T06:51:02.297Z,4.73
2019-02-19T06:53:31.037Z,5.50
2019-02-19T06:55:59.713Z,4.93
2019-02-19T06:58:28.369Z,4.33
2019-02-19T07:00:57.051Z,3.60
2019-02-19T07:06:14.951Z,4.47
2019-02-19T07:08:43.616Z,3.70
2019-02-19T07:11:12.304Z,4.20
2019-02-19T07:16:49.480Z,3.80
2019-02-19T07:19:18.129Z,4.20
2019-02-19T07:21:46.769Z,3.80
2019-02-19T07:24:34.558Z,3.97
2019-02-19T07:27:03.338Z,4.10
2019-02-19T07:29:51.138Z,3.60
2019-02-19T07:32:19.774Z,3.20
2019-02-19T07:35:07.611Z,3.77
2019-02-19T07:37:36.277Z,4.20
2019-02-19T07:40:44.749Z,4.27
2019-02-19T07:43:13.445Z,3.87
2019-02-19T07:45:42.194Z,3.87
2019-02-19T07:48:10.881Z,3.20
2019-02-19T07:50:39.611Z,2.90
2019-02-19T07:53:08.266Z,4.03
2019-02-19T07:55:36.884Z,3.50
2019-02-19T07:58:05.583Z,3.77
2019-02-19T08:00:34.274Z,4.17
2019-02-19T08:03:04.545Z,3.10
2019-02-19T08:05:33.378Z,4.47
2019-02-19T08:08:21.205Z,2.87
2019-02-19T08:10:49.820Z,3.43
2019-02-19T08:13:18.477Z,3.80
2019-02-19T08:15:47.086Z,3.70
2019-02-19T08:18:15.748Z,4.80
2019-02-19T08:20:44.421Z,3.43
2019-02-19T08:23:32.362Z,3.70
2019-02-19T08:26:01.087Z,4.60
2019-02-19T08:28:29.656Z,3.13
2019-02-19T08:30:58.271Z,3.73
2019-02-19T08:33:26.924Z,4.00
2019-02-19T08:35:55.608Z,3.87
2019-02-19T08:38:24.195Z,4.80
2019-02-19T08:41:12.143Z,3.83
2019-02-19T08:43:59.992Z,4.73
2019-02-19T08:46:28.690Z,2.83
2019-02-19T08:49:16.554Z,3.47
2019-02-19T08:51:45.213Z,3.43
2019-02-19T08:54:33.100Z,2.83
2019-02-19T08:57:02.013Z,2.90
2019-02-19T08:59:30.625Z,3.67
2019-02-19T09:01:59.326Z,3.60
2019-02-19T09:04:27.927Z,2.90
2019-02-19T09:07:15.733Z,3.37
2019-02-19T09:09:44.423Z,3.27
2019-02-19T09:12:13.074Z,3.37
2019-02-19T09:14:41.717Z,4.07
2019-02-19T09:17:10.400Z,3.20
2019-02-19T09:19:39.126Z,4.13
2019-02-19T09:22:27.002Z,3.40
2019-02-19T09:24:55.696Z,4.63
2019-02-19T09:27:43.606Z,3.10
2019-02-19T09:30:52.082Z,3.53
2019-02-19T09:33:20.714Z,3.50
2019-02-19T09:36:08.584Z,3.10
2019-02-19T09:38:37.293Z,3.70
2019-02-19T09:41:05.916Z,3.10
2019-02-19T09:43:35.751Z,3.93
2019-02-19T09:46:04.891Z,3.73
2019-02-19T09:48:33.593Z,3.47
2019-02-19T09:51:02.257Z,3.50
2019-02-19T09:53:30.831Z,4.13
2019-02-19T09:56:18.783Z,3.40
2019-02-19T09:58:47.431Z,3.40
2019-02-19T10:01:35.220Z,3.67
2019-02-19T10:04:03.880Z,3.87
2019-02-19T10:06:32.608Z,3.67
2019-02-19T10:09:01.273Z,3.70
2019-02-19T10:11:49.148Z,3.20
2019-02-19T10:14:17.809Z,3.33
2019-02-19T10:16:46.510Z,3.77
2019-02-19T10:19:15.144Z,5.77
2019-02-19T10:22:02.999Z,3.30
2019-02-19T10:24:31.701Z,3.37
2019-02-19T10:27:00.405Z,3.53
2019-02-19T10:29:29.045Z,3.73
2019-02-19T10:31:57.740Z,3.80
2019-02-19T10:34:26.397Z,3.27
2019-02-19T10:36:55.049Z,4.47
2019-02-19T10:39:23.865Z,3.70
2019-02-19T10:41:53.059Z,4.93
2019-02-19T10:44:22.959Z,3.73
2019-02-19T10:46:51.657Z,3.90
2019-02-19T10:49:20.226Z,3.37
2019-02-19T10:54:36.577Z,3.20
2019-02-19T10:57:05.253Z,3.50
2019-02-19T10:59:33.953Z,3.87
2019-02-19T11:02:02.607Z,3.60
2019-02-19T11:04:31.372Z,2.97
2019-02-19T11:07:00.016Z,3.43
2019-02-19T11:09:28.719Z,3.60
2019-02-19T11:11:58.132Z,3.27
2019-02-19T11:14:27.886Z,3.97
2019-02-19T11:16:56.561Z,3.53
2019-02-19T11:19:44.405Z,4.03
2019-02-19T11:22:32.272Z,4.10
2019-02-19T11:25:00.908Z,3.77
2019-02-19T11:27:29.870Z,4.07
2019-02-19T11:29:58.603Z,3.23
2019-02-19T11:32:46.412Z,3.97
2019-02-19T11:35:15.123Z,3.73
2019-02-19T11:37:43.827Z,4.47
2019-02-19T11:40:52.245Z,3.77
2019-02-19T11:43:20.947Z,3.30
2019-02-19T11:45:49.536Z,3.77
2019-02-19T11:48:19.201Z,3.63
2019-02-19T11:50:48.664Z,3.73
2019-02-19T11:53:17.335Z,4.57
2019-02-19T11:55:46.039Z,4.03
2019-02-19T11:58:14.678Z,3.87
2019-02-19T12:03:32.571Z,3.73
2019-02-19T12:06:01.339Z,3.67
2019-02-19T12:08:49.228Z,4.37
2019-02-19T12:11:17.909Z,5.07
2019-02-19T12:13:46.573Z,3.80
2019-02-19T12:16:15.263Z,3.90
2019-02-19T12:19:03.177Z,3.83
2019-02-19T12:21:31.892Z,4.13
2019-02-19T12:24:00.562Z,4.20
2019-02-19T12:26:48.820Z,3.93
2019-02-19T12:29:17.571Z,3.90
2019-02-19T12:32:05.459Z,4.23
2019-02-19T12:34:34.077Z,4.00
2019-02-19T12:37:02.590Z,3.47
2019-02-19T12:39:31.286Z,4.37
2019-02-19T12:41:59.954Z,7.10
2019-02-19T12:44:47.911Z,4.60
2019-02-19T12:47:16.496Z,4.40
2019-02-19T12:50:04.464Z,7.90
2019-02-19T12:52:33.120Z,6.87
2019-02-19T12:55:21.093Z,5.83
2019-02-19T12:57:49.781Z,8.77
2019-02-19T13:00:58.283Z,6.17
2019-02-19T13:03:26.932Z,6.53
2019-02-19T13:05:55.618Z,4.83
2019-02-19T13:08:24.300Z,4.67
2019-02-19T13:10:52.988Z,7.13
2019-02-19T13:13:21.655Z,7.07
2019-02-19T13:15:50.350Z,4.93
2019-02-19T13:18:18.983Z,6.40
2019-02-19T13:20:47.762Z,4.93
2019-02-19T13:23:16.413Z,6.73
2019-02-19T13:25:45.070Z,4.57
2019-02-19T13:28:13.763Z,5.40
2019-02-19T13:30:42.403Z,6.13
2019-02-19T13:33:11.143Z,5.83
2019-02-19T13:35:39.834Z,4.93
2019-02-19T13:38:08.506Z,5.27
2019-02-19T13:40:37.221Z,5.97
2019-02-19T13:43:05.986Z,6.50
2019-02-19T13:45:34.634Z,7.13
2019-02-19T13:48:06.022Z,6.20
2019-02-19T13:50:33.704Z,7.80
2019-02-19T13:53:21.541Z,7.57
2019-02-19T13:56:09.359Z,7.87
2019-02-19T13:58:38.066Z,7.80
2019-02-19T14:01:06.726Z,8.10
2019-02-19T14:06:09.471Z,5.57
2019-02-19T14:08:57.406Z,9.03
2019-02-19T14:11:26.106Z,13.77
2019-02-19T14:14:13.862Z,5.33
2019-02-19T14:22:16.221Z,5.47
2019-02-19T14:30:36.070Z,5.37
2019-02-19T14:33:23.876Z,6.47
2019-02-19T14:36:11.678Z,7.53
2019-02-19T14:38:59.514Z,7.33
2019-02-19T14:41:47.252Z,9.83
2019-02-19T14:44:34.992Z,6.17
2019-02-19T14:47:22.785Z,6.27
2019-02-19T14:50:10.600Z,6.53
2019-02-19T14:52:58.425Z,5.63
2019-02-19T14:55:46.169Z,6.97
2019-02-19T14:58:33.932Z,6.23
2019-02-19T15:01:21.785Z,6.03
2019-02-19T15:04:09.598Z,6.50
2019-02-19T15:06:57.417Z,7.87
2019-02-19T15:09:45.222Z,8.00
2019-02-19T15:12:32.972Z,6.23
2019-02-19T15:15:20.793Z,6.10
2019-02-19T15:18:08.626Z,6.37
2019-02-19T15:23:45.654Z,5.90
2019-02-19T15:29:12.711Z,6.07
2019-02-19T15:32:00.490Z,5.97
2019-02-19T15:37:23.940Z,7.40
2019-02-19T15:40:11.716Z,9.03
2019-02-19T15:45:38.566Z,11.20
2019-02-19T15:51:01.729Z,6.60
2019-02-19T15:53:49.563Z,7.13
2019-02-19T15:56:37.361Z,6.23
2019-02-19T15:59:25.182Z,5.83
2019-02-19T16:05:02.230Z,6.73
2019-02-19T16:07:49.981Z,6.97
2019-02-19T16:13:20.819Z,7.67
2019-02-19T16:16:08.602Z,5.60
2019-02-19T16:18:56.423Z,6.37
2019-02-19T16:21:44.202Z,6.00
2019-02-19T16:29:44.388Z,5.43
2019-02-19T16:32:32.170Z,5.17
2019-02-19T16:35:19.981Z,5.20
2019-02-19T16:40:43.219Z,6.33
2019-02-19T16:43:31.021Z,7.03
2019-02-19T16:46:18.849Z,6.67
2019-02-19T16:49:06.663Z,7.43
2019-02-19T16:54:43.710Z,8.57
2019-02-19T17:00:10.476Z,6.63
2019-02-19T17:02:58.371Z,6.30
2019-02-19T17:05:46.152Z,6.03
2019-02-19T17:13:48.456Z,5.60
2019-02-19T17:16:43.849Z,6.77
2019-02-19T17:19:31.667Z,6.37
2019-02-19T17:33:14.557Z,5.80
2019-02-19T17:39:11.058Z,7.47
2019-02-19T17:41:58.946Z,6.57
2019-02-19T17:44:46.941Z,6.70
2019-02-19T17:47:34.810Z,7.13
2019-02-19T17:53:30.768Z,8.00
2019-02-19T17:56:18.588Z,6.73
2019-02-19T18:01:42.147Z,7.67
2019-02-19T18:04:29.972Z,6.83
2019-02-19T18:07:17.816Z,7.37
2019-02-19T18:10:05.648Z,7.77
2019-02-19T18:12:53.363Z,7.87
2019-02-19T18:15:41.178Z,7.33
2019-02-19T18:18:28.952Z,7.20
2019-02-19T18:20:57.700Z,7.07
2019-02-19T18:23:26.291Z,7.03
2019-02-19T18:25:54.977Z,7.13
2019-02-19T18:28:23.649Z,6.87
2019-02-19T18:30:52.357Z,6.40
2019-02-19T18:41:47.408Z,5.60
2019-02-19T18:46:50.543Z,6.03
2019-02-19T18:49:19.255Z,6.27
2019-02-19T18:52:07.102Z,5.97
2019-02-19T18:54:35.809Z,6.00
2019-02-19T18:57:23.642Z,5.63
2019-02-19T18:59:52.256Z,6.27
2019-02-19T19:02:20.897Z,6.33
2019-02-19T19:04:49.653Z,6.37
2019-02-19T19:07:18.405Z,7.40
2019-02-19T19:10:27.008Z,8.63
2019-02-19T19:12:55.836Z,8.77
2019-02-19T19:15:24.678Z,9.67
2019-02-19T19:17:53.515Z,8.30
2019-02-19T19:20:22.203Z,7.13
2019-02-19T19:22:50.971Z,7.20
2019-02-19T19:25:20.538Z,7.67
2019-02-19T19:28:08.717Z,6.77
2019-02-19T19:33:45.549Z,8.03
2019-02-19T19:36:14.373Z,8.73
2019-02-19T19:38:43.009Z,9.73
2019-02-19T19:41:30.912Z,10.80
2019-02-19T19:43:59.573Z,12.00
2019-02-19T19:46:28.295Z,12.70
2019-02-19T19:48:57.123Z,12.07
2019-02-19T19:51:45.085Z,11.47
2019-02-19T19:54:13.755Z,10.73
2019-02-19T19:56:42.546Z,11.17
2019-02-19T19:59:11.295Z,11.23
2019-02-19T20:01:40.001Z,9.87
2019-02-19T20:04:08.755Z,10.07
2019-02-19T20:06:56.666Z,9.67
2019-02-19T20:09:25.347Z,11.03
2019-02-19T20:11:54.205Z,19.93
2019-02-19T20:14:22.933Z,23.70
2019-02-19T20:16:51.511Z,23.53
2019-02-19T20:19:20.197Z,23.37
2019-02-19T20:22:08.254Z,19.23
2019-02-19T20:24:37.192Z,17.43
2019-02-19T20:27:05.867Z,14.57
2019-02-19T20:29:34.559Z,13.43
2019-02-19T20:32:03.331Z,11.63
2019-02-19T20:34:32.151Z,11.97
2019-02-19T20:37:00.958Z,10.83
2019-02-19T20:39:48.867Z,9.23
2019-02-19T20:42:17.514Z,9.40
2019-02-19T20:45:26.031Z,8.17
2019-02-19T20:47:54.694Z,8.73
2019-02-19T20:50:23.351Z,9.83
2019-02-19T20:52:52.066Z,9.83
2019-02-19T20:55:39.975Z,8.33
2019-02-19T20:58:08.680Z,9.13
2019-02-19T21:00:37.351Z,9.13
2019-02-19T21:03:25.406Z,8.17
2019-02-19T21:06:13.322Z,9.63
2019-02-19T21:08:42.023Z,10.37
2019-02-19T21:11:10.669Z,10.50
2019-02-19T21:13:39.474Z,9.53
2019-02-19T21:16:27.359Z,8.60
2019-02-19T21:19:15.376Z,8.63
2019-02-19T21:21:45.198Z,9.83
2019-02-19T21:24:14.505Z,9.70
2019-02-19T21:26:43.303Z,9.77
2019-02-19T21:29:11.892Z,10.90
2019-02-19T21:31:59.848Z,10.33
2019-02-19T21:34:28.519Z,11.90
2019-02-19T21:36:57.085Z,10.00
2019-02-19T21:39:25.787Z,10.70
2019-02-19T21:41:54.509Z,9.87
2019-02-19T21:44:23.222Z,10.87
2019-02-19T21:47:11.173Z,10.30
2019-02-19T21:49:39.829Z,11.63
2019-02-19T21:52:08.468Z,9.87
2019-02-19T21:54:37.034Z,9.83
2019-02-19T21:57:05.741Z,10.50
2019-02-19T21:59:34.459Z,10.67
2019-02-19T22:02:03.157Z,10.87
2019-02-19T22:04:32.110Z,10.93
2019-02-19T22:07:02.322Z,10.57
2019-02-19T22:09:31.026Z,10.47
2019-02-19T22:11:59.605Z,9.87
2019-02-19T22:14:28.183Z,10.53
2019-02-19T22:17:16.010Z,9.43
2019-02-19T22:25:47.933Z,11.18
2019-02-19T22:28:16.692Z,9.73
2019-02-19T22:30:45.333Z,9.87
2019-02-19T22:33:14.105Z,11.13
2019-02-19T22:35:42.773Z,11.93
2019-02-19T22:38:11.580Z,11.63
2019-02-19T22:40:40.140Z,10.90
2019-02-19T22:43:08.785Z,11.03
2019-02-19T22:45:37.678Z,10.33
2019-02-19T22:48:06.439Z,10.73
2019-02-19T22:50:35.235Z,10.17
2019-02-19T22:56:12.303Z,9.83
2019-02-19T22:58:40.978Z,11.93
2019-02-19T23:01:49.448Z,10.97
2019-02-19T23:04:18.265Z,10.93
2019-02-19T23:06:46.892Z,11.57
2019-02-19T23:09:34.851Z,11.10
2019-02-19T23:17:12.268Z,11.80
2019-02-19T23:19:42.856Z,10.17
2019-02-19T23:22:11.397Z,13.07
2019-02-19T23:24:59.283Z,10.60
2019-02-19T23:27:27.948Z,13.07
2019-02-19T23:29:56.652Z,11.70
2019-02-19T23:32:25.297Z,12.03
2019-02-19T23:37:29.476Z,11.93
2019-02-19T23:39:57.981Z,10.80
2019-02-19T23:42:45.934Z,11.33
2019-02-19T23:45:14.655Z,11.90
2019-02-19T23:47:43.414Z,11.87
2019-02-19T23:50:12.139Z,11.87
2019-02-19T23:52:40.826Z,11.70
2019-02-19T23:55:09.606Z,11.57
2019-02-19T23:57:38.300Z,13.00
